createdAt,value
2022-09-28T02:37:29.471Z,100.00
2022-09-28T02:40:33.636Z,100.00
2022-09-28T02:43:47.926Z,100.00
2022-09-28T02:47:21.900Z,100.00
2022-09-28T02:50:54.634Z,100.00
2022-09-28T02:54:18.527Z,100.00
2022-09-28T02:57:43.389Z,100.00
2022-09-28T03:01:01.471Z,100.00
2022-09-28T03:04:25.711Z,100.00
2022-09-28T03:08:01.115Z,100.00
2022-09-28T03:11:13.898Z,100.00
2022-09-28T03:14:16.066Z,100.00
2022-09-28T03:17:24.566Z,100.00
2022-09-28T03:20:28.075Z,100.00
2022-09-28T03:23:29.738Z,100.00
2022-09-28T03:26:35.680Z,100.00
2022-09-28T03:42:08.211Z,100.00
2022-09-28T03:53:47.920Z,100.00
2022-09-28T04:01:53.693Z,100.00
2022-09-28T04:10:35.206Z,100.00
2022-09-28T04:13:19.869Z,100.00
2022-09-28T04:16:24.462Z,100.00
2022-09-28T04:19:39.488Z,100.00
2022-09-28T04:22:51.226Z,100.00
2022-09-28T04:26:16.849Z,100.00
2022-09-28T04:29:19.245Z,100.00
2022-09-28T04:32:49.517Z,100.00
2022-09-28T04:35:54.634Z,100.00
2022-09-28T04:40:05.359Z,100.00
2022-09-28T04:42:55.073Z,100.00
2022-09-28T04:50:24.608Z,100.00
2022-09-28T04:53:51.229Z,100.00
2022-09-28T04:56:56.431Z,100.00
2022-09-28T05:00:03.959Z,100.00
2022-09-28T05:03:08.870Z,100.00
2022-09-28T05:06:50.314Z,100.00
2022-09-28T05:09:58.896Z,100.00
2022-09-28T05:14:04.022Z,100.00
2022-09-28T05:16:49.196Z,100.00
2022-09-28T05:20:16.227Z,100.00
2022-09-28T05:23:18.170Z,100.00
2022-09-28T05:26:20.723Z,100.00
2022-09-28T05:29:22.886Z,100.00
2022-09-28T05:32:24.555Z,100.00
2022-09-28T05:35:49.749Z,100.00
2022-09-28T05:38:55.331Z,100.00
2022-09-28T05:41:57.908Z,100.00
2022-09-28T05:44:59.773Z,100.00
2022-09-28T05:48:02.141Z,100.00
2022-09-28T05:51:04.493Z,100.00
2022-09-28T05:54:07.255Z,100.00
2022-09-28T05:57:14.086Z,100.00
2022-09-28T06:00:18.458Z,100.00
2022-09-28T06:03:27.425Z,100.00
2022-09-28T06:06:29.224Z,100.00
2022-09-28T06:09:31.805Z,100.00
2022-09-28T06:12:47.963Z,100.00
2022-09-28T06:15:51.169Z,100.00
2022-09-28T06:18:52.934Z,100.00
2022-09-28T06:22:13.052Z,100.00
2022-09-28T06:25:25.934Z,100.00
2022-09-28T06:28:28.115Z,100.00
2022-09-28T06:31:32.383Z,100.00
2022-09-28T06:34:35.199Z,100.00
2022-09-28T06:37:36.898Z,100.00
2022-09-28T06:40:38.954Z,100.00
2022-09-28T06:43:41.292Z,100.00
2022-09-28T06:47:01.707Z,100.00
2022-09-28T06:50:16.326Z,100.00
2022-09-28T06:54:00.004Z,100.00
2022-09-28T06:57:24.746Z,100.00
2022-09-28T07:00:46.540Z,100.00
2022-09-28T07:03:50.524Z,100.00
2022-09-28T07:07:20.391Z,100.00
2022-09-28T07:10:27.968Z,100.00
2022-09-28T07:13:50.805Z,100.00
2022-09-28T07:17:12.247Z,100.00
2022-09-28T07:20:19.101Z,100.00
2022-09-28T07:23:24.559Z,100.00
2022-09-28T07:26:45.581Z,100.00
2022-09-28T07:30:07.824Z,100.00
2022-09-28T07:33:19.186Z,100.00
2022-09-28T07:36:24.735Z,100.00
2022-09-28T07:39:27.610Z,100.00
2022-09-28T07:42:30.598Z,100.00
2022-09-28T07:45:36.015Z,100.00
2022-09-28T07:48:41.401Z,100.00
2022-09-28T07:51:56.523Z,100.00
2022-09-28T07:55:18.465Z,100.00
2022-09-28T07:58:32.838Z,100.00
2022-09-28T08:01:59.568Z,100.00
2022-09-28T08:05:09.408Z,100.00
2022-09-28T08:08:14.175Z,100.00
2022-09-28T08:11:24.030Z,100.00
2022-09-28T08:14:47.643Z,100.00
2022-09-28T08:18:27.620Z,100.00
2022-09-28T08:22:14.794Z,100.00
2022-09-28T08:25:49.626Z,100.00
2022-09-28T08:29:04.843Z,100.00
2022-09-28T08:32:32.980Z,100.00
2022-09-28T08:36:00.997Z,100.00
2022-09-28T08:39:31.755Z,100.00
2022-09-28T08:42:58.538Z,100.00
2022-09-28T08:50:56.237Z,100.00
2022-09-28T08:55:11.187Z,100.00
2022-09-28T08:59:16.739Z,100.00
2022-09-28T09:26:40.471Z,100.00
2022-09-28T09:30:20.549Z,100.00
2022-09-28T09:34:17.838Z,100.00
2022-09-28T09:38:00.800Z,100.00
2022-09-28T09:41:45.287Z,100.00
2022-09-28T09:45:33.702Z,100.00
2022-09-28T09:48:50.355Z,100.00
2022-09-28T09:52:31.189Z,100.00
2022-09-28T09:55:43.845Z,100.00
2022-09-28T09:59:12.190Z,100.00
2022-09-28T10:02:35.140Z,100.00
2022-09-28T10:05:47.422Z,100.00
2022-09-28T10:09:11.327Z,100.00
2022-09-28T10:12:20.744Z,100.00
2022-09-28T10:15:25.749Z,100.00
2022-09-28T10:18:43.734Z,100.00
2022-09-28T10:22:05.789Z,100.00
2022-09-28T10:25:10.711Z,100.00
2022-09-28T10:28:21.477Z,100.00
2022-09-28T10:31:47.242Z,99.97
2022-09-28T10:35:18.164Z,100.00
2022-09-28T10:38:24.513Z,100.00
2022-09-28T10:41:32.686Z,100.00
2022-09-28T10:45:20.902Z,100.00
2022-09-28T10:48:23.019Z,99.99
2022-09-28T10:51:49.561Z,99.59
2022-09-28T10:54:58.565Z,99.08
2022-09-28T10:58:00.849Z,97.81
2022-09-28T11:01:23.031Z,97.41
2022-09-28T11:04:29.800Z,96.07
2022-09-28T11:07:33.498Z,95.04
2022-09-28T11:10:36.196Z,94.79
2022-09-28T11:13:50.406Z,95.52
2022-09-28T11:17:26.406Z,95.78
2022-09-28T11:20:29.157Z,96.01
2022-09-28T11:23:34.425Z,95.94
2022-09-28T11:26:59.957Z,96.16
2022-09-28T11:30:04.298Z,93.09
2022-09-28T11:33:17.656Z,94.77
2022-09-28T11:37:01.421Z,95.16
2022-09-28T11:40:15.788Z,94.02
2022-09-28T11:43:35.979Z,93.65
2022-09-28T11:46:44.148Z,91.76
2022-09-28T11:49:52.335Z,88.77
2022-09-28T11:53:11.689Z,88.57
2022-09-28T11:56:40.191Z,88.81
2022-09-28T12:00:01.838Z,89.12
2022-09-28T12:03:20.941Z,90.64
2022-09-28T12:06:29.871Z,91.10
2022-09-28T12:09:50.589Z,89.99
2022-09-28T12:13:03.879Z,91.21
2022-09-28T12:16:37.524Z,89.82
2022-09-28T12:20:22.206Z,89.53
2022-09-28T12:23:34.264Z,89.36
2022-09-28T12:26:42.246Z,89.39
2022-09-28T12:29:55.354Z,88.99
2022-09-28T12:33:13.176Z,88.61
2022-09-28T12:36:26.205Z,85.64
2022-09-28T12:39:57.384Z,84.65
2022-09-28T12:43:14.751Z,84.79
2022-09-28T12:47:05.773Z,88.76
2022-09-28T12:50:45.593Z,87.06
2022-09-28T12:53:49.269Z,88.30
2022-09-28T12:57:09.127Z,88.05
2022-09-28T13:00:10.883Z,88.27
2022-09-28T13:03:45.846Z,89.14
2022-09-28T13:07:06.660Z,89.31
2022-09-28T13:10:32.492Z,89.42
2022-09-28T13:13:40.076Z,89.38
2022-09-28T13:16:51.010Z,89.91
2022-09-28T13:20:04.074Z,89.56
2022-09-28T13:23:11.675Z,88.49
2022-09-28T13:26:28.088Z,88.97
2022-09-28T13:29:30.681Z,88.76
2022-09-28T13:32:37.318Z,88.44
2022-09-28T13:35:43.327Z,88.44
2022-09-28T13:38:49.588Z,88.95
2022-09-28T13:41:51.148Z,89.03
2022-09-28T13:45:15.717Z,88.98
2022-09-28T13:48:28.290Z,85.13
2022-09-28T13:51:58.132Z,83.78
2022-09-28T13:55:23.625Z,84.95
2022-09-28T13:58:31.195Z,84.25
2022-09-28T14:01:39.913Z,84.93
2022-09-28T14:04:57.007Z,85.27
2022-09-28T14:08:17.292Z,86.65
2022-09-28T14:11:40.647Z,87.07
2022-09-28T14:14:51.152Z,85.45
2022-09-28T14:18:17.177Z,86.29
2022-09-28T14:21:30.993Z,85.88
2022-09-28T14:24:47.774Z,86.77
2022-09-28T14:28:23.306Z,87.29
2022-09-28T14:31:28.224Z,87.51
2022-09-28T14:34:44.026Z,87.78
2022-09-28T14:38:08.318Z,87.30
2022-09-28T14:41:31.344Z,86.21
2022-09-28T14:45:15.788Z,86.43
2022-09-28T14:48:53.555Z,86.79
2022-09-28T14:51:55.859Z,87.47
2022-09-28T14:54:58.102Z,88.18
2022-09-28T14:57:59.745Z,88.11
2022-09-28T15:01:09.464Z,88.61
2022-09-28T15:04:12.907Z,89.26
2022-09-28T15:07:52.175Z,90.03
2022-09-28T15:10:53.896Z,91.10
2022-09-28T15:14:06.420Z,91.03
2022-09-28T15:17:14.879Z,90.84
2022-09-28T15:20:25.609Z,91.06
2022-09-28T15:23:33.503Z,91.08
2022-09-28T15:26:35.261Z,91.55
2022-09-28T15:29:37.053Z,92.09
2022-09-28T15:32:38.689Z,92.39
2022-09-28T15:35:40.678Z,92.68
2022-09-28T15:38:42.855Z,93.48
2022-09-28T15:41:46.769Z,93.94
2022-09-28T15:45:26.745Z,93.41
2022-09-28T15:48:45.512Z,92.86
2022-09-28T15:51:53.600Z,92.53
2022-09-28T15:54:55.722Z,92.48
2022-09-28T15:58:12.549Z,92.96
2022-09-28T16:01:20.112Z,93.49
2022-09-28T16:04:34.471Z,93.65
2022-09-28T16:07:56.021Z,93.89
2022-09-28T16:11:26.186Z,94.30
2022-09-28T16:14:27.785Z,94.85
2022-09-28T16:17:35.712Z,94.99
2022-09-28T16:20:39.733Z,95.52
2022-09-28T16:23:41.783Z,95.61
2022-09-28T16:26:43.558Z,95.73
2022-09-28T16:30:05.165Z,96.08
2022-09-28T16:33:40.111Z,96.36
2022-09-28T16:36:48.938Z,97.07
2022-09-28T16:39:50.587Z,97.58
2022-09-28T16:42:56.187Z,98.02
2022-09-28T16:46:12.799Z,98.58
2022-09-28T16:49:19.362Z,99.18
2022-09-28T16:52:40.924Z,99.62
2022-09-28T16:55:42.649Z,99.71
2022-09-28T16:58:47.979Z,99.91
2022-09-28T17:01:49.615Z,100.00
2022-09-28T17:04:51.565Z,100.00
2022-09-28T17:08:04.022Z,100.00
2022-09-28T17:11:16.949Z,100.00
2022-09-28T17:14:23.423Z,100.00
2022-09-28T17:17:29.736Z,100.00
2022-09-28T17:20:32.684Z,100.00
2022-09-28T17:23:34.239Z,100.00
2022-09-28T17:26:36.828Z,100.00
2022-09-28T17:29:38.472Z,100.00
2022-09-28T17:32:50.018Z,100.00
2022-09-28T17:35:53.340Z,100.00
2022-09-28T17:38:54.955Z,100.00
2022-09-28T17:41:56.498Z,100.00
2022-09-28T17:44:58.100Z,100.00
2022-09-28T17:48:00.695Z,100.00
2022-09-28T17:51:02.528Z,100.00
2022-09-28T17:54:06.030Z,100.00
2022-09-28T17:57:09.002Z,100.00
